Time;durP1;ratioP1;P1;durP2;ratioP2;P2;SDS_P1;SDS_P2;PMS_P1;PMS_P2;Temp;Humidity;BMP_temperature;BMP_pressure;BME280_temperature;BME280_humidity;BME280_pressure;Samples;Min_cycle;Max_cycle;Signal;HPM_P1;HPM_P2
2022/08/13 00:02:10;;;;;;;5.47;4.20;;;19.30;69.10;;;;;;4976826;28;20285;-65
2022/08/13 00:04:44;;;;;;;4.03;3.60;;;19.20;69.20;;;;;;5011164;28;20706;-65
2022/08/13 00:07:10;;;;;;;6.90;3.93;;;19.20;69.40;;;;;;4971805;28;20694;-65
2022/08/13 00:09:39;;;;;;;4.50;3.60;;;19.10;69.30;;;;;;4986361;28;20308;-65
2022/08/13 00:15:19;;;;;;;8.43;3.93;;;19.00;69.70;;;;;;4963225;28;20321;-66
2022/08/13 00:17:51;;;;;;;4.67;3.67;;;19.00;70.00;;;;;;4985785;28;20348;-65
2022/08/13 00:20:19;;;;;;;7.27;3.90;;;18.90;70.00;;;;;;4986068;28;20309;-65
2022/08/13 00:22:47;;;;;;;7.03;4.20;;;18.90;70.30;;;;;;4987190;28;20288;-65
2022/08/13 00:25:15;;;;;;;8.17;4.57;;;18.80;70.50;;;;;;4984801;28;20364;-65
2022/08/13 00:27:47;;;;;;;6.87;4.03;;;18.80;70.90;;;;;;4965265;28;20290;-65
2022/08/13 00:30:15;;;;;;;6.57;4.03;;;18.70;70.90;;;;;;4963294;28;21035;-65
2022/08/13 00:32:45;;;;;;;6.63;4.53;;;18.70;71.00;;;;;;4986179;28;20293;-65
2022/08/13 00:35:13;;;;;;;5.37;4.13;;;18.70;71.20;;;;;;4983660;28;20353;-65
2022/08/13 00:37:41;;;;;;;5.33;4.20;;;18.70;71.20;;;;;;4988165;28;20285;-65
2022/08/13 00:40:11;;;;;;;6.37;4.20;;;18.60;71.30;;;;;;4992200;28;20311;-65
2022/08/13 00:42:37;;;;;;;7.37;4.20;;;18.60;71.40;;;;;;4983954;28;20297;-65
2022/08/13 00:45:05;;;;;;;5.53;4.20;;;18.60;71.50;;;;;;4963940;28;20283;-65
2022/08/13 00:50:15;;;;;;;5.13;3.92;;;18.50;71.60;;;;;;4973114;28;20400;-65
2022/08/13 00:52:41;;;;;;;4.37;3.60;;;18.50;71.70;;;;;;4990174;28;20124;-65
2022/08/13 00:55:16;;;;;;;5.00;4.27;;;18.40;71.80;;;;;;4988979;28;20042;-65
2022/08/13 00:57:44;;;;;;;6.95;4.68;;;18.40;71.90;;;;;;4987324;28;20509;-65
2022/08/13 01:00:17;;;;;;;5.00;4.50;;;18.40;72.10;;;;;;4971871;28;20049;-65
2022/08/13 01:02:46;;;;;;;6.33;4.40;;;18.40;72.30;;;;;;4972342;28;20286;-66
2022/08/13 01:05:13;;;;;;;5.43;4.20;;;18.40;72.30;;;;;;5012940;28;20286;-65
2022/08/13 01:07:41;;;;;;;7.40;4.57;;;18.30;72.10;;;;;;4984301;28;20364;-65
2022/08/13 01:10:09;;;;;;;6.30;4.40;;;18.30;72.10;;;;;;4978650;28;20335;-65
2022/08/13 01:12:36;;;;;;;7.47;4.80;;;18.30;72.30;;;;;;4968367;28;20661;-65
2022/08/13 01:15:04;;;;;;;8.77;4.10;;;18.20;72.40;;;;;;4982486;28;20281;-65
2022/08/13 01:17:31;;;;;;;7.80;4.73;;;18.20;72.50;;;;;;4972338;28;20305;-65
2022/08/13 01:19:57;;;;;;;5.63;4.50;;;18.20;72.50;;;;;;5000284;28;20309;-65
2022/08/13 01:22:25;;;;;;;5.40;3.80;;;18.10;72.60;;;;;;4994229;28;20289;-65
2022/08/13 01:24:51;;;;;;;5.20;4.53;;;18.10;72.80;;;;;;4979791;28;20365;-65
2022/08/13 01:27:21;;;;;;;6.87;4.40;;;18.10;72.90;;;;;;4979593;28;20285;-65
2022/08/13 01:29:48;;;;;;;6.10;4.50;;;18.10;73.10;;;;;;4977653;28;20301;-65
2022/08/13 01:32:16;;;;;;;6.13;4.07;;;18.10;72.90;;;;;;4986325;28;20471;-65
2022/08/13 01:34:47;;;;;;;6.20;4.17;;;18.10;72.90;;;;;;5005166;28;20679;-65
2022/08/13 01:37:14;;;;;;;4.97;4.47;;;18.10;72.90;;;;;;4984762;28;20874;-65
2022/08/13 01:39:40;;;;;;;6.30;4.20;;;18.00;72.90;;;;;;4982714;28;20309;-65
2022/08/13 01:42:17;;;;;;;6.47;4.73;;;18.00;73.00;;;;;;4985994;28;20294;-65
2022/08/13 01:44:45;;;;;;;6.10;4.60;;;18.00;73.20;;;;;;4978636;28;20282;-65
2022/08/13 01:52:45;;;;;;;6.20;4.40;;;17.90;73.20;;;;;;4979812;28;20068;-65
2022/08/13 01:55:12;;;;;;;7.53;4.53;;;17.90;73.10;;;;;;4984500;28;20821;-65
2022/08/13 01:57:40;;;;;;;7.63;4.37;;;17.90;73.20;;;;;;4975728;28;20306;-65
2022/08/13 02:00:10;;;;;;;6.53;4.67;;;17.90;73.10;;;;;;4985171;28;20319;-65
2022/08/13 02:02:36;;;;;;;8.90;4.20;;;17.90;73.20;;;;;;4966145;28;20480;-65
2022/08/13 02:05:03;;;;;;;7.97;4.73;;;17.80;73.20;;;;;;4967945;28;20359;-65
2022/08/13 02:07:31;;;;;;;6.47;4.37;;;17.80;73.30;;;;;;4950916;28;20122;-65
2022/08/13 02:09:57;;;;;;;7.83;4.67;;;17.80;73.30;;;;;;4965869;28;20777;-65
2022/08/13 02:12:23;;;;;;;6.33;4.57;;;17.70;73.30;;;;;;4974517;28;20290;-65
2022/08/13 02:14:49;;;;;;;6.47;4.03;;;17.70;73.30;;;;;;4982227;28;20304;-65
2022/08/13 02:17:27;;;;;;;4.80;3.97;;;17.70;73.40;;;;;;4984096;28;20050;-65
2022/08/13 02:19:57;;;;;;;7.90;4.70;;;17.60;73.40;;;;;;4976583;28;20306;-65
2022/08/13 02:22:24;;;;;;;6.40;4.20;;;17.60;73.40;;;;;;4962758;28;20293;-65
2022/08/13 02:24:54;;;;;;;6.03;4.40;;;17.60;73.30;;;;;;4951622;28;20647;-65
2022/08/13 02:27:25;;;;;;;6.93;4.77;;;17.60;73.50;;;;;;4963435;28;20611;-65
2022/08/13 02:29:54;;;;;;;5.47;4.53;;;17.60;73.50;;;;;;4975153;28;20293;-65
2022/08/13 02:32:23;;;;;;;6.57;4.40;;;17.50;73.50;;;;;;4991991;28;20306;-65
2022/08/13 02:34:50;;;;;;;7.03;4.23;;;17.50;73.50;;;;;;4956691;28;20302;-65
2022/08/13 02:37:21;;;;;;;7.80;4.80;;;17.50;73.70;;;;;;4981888;28;20289;-65
2022/08/13 02:39:56;;;;;;;4.83;4.30;;;17.50;73.50;;;;;;4985548;28;20643;-65
2022/08/13 02:42:22;;;;;;;6.57;4.47;;;17.50;73.40;;;;;;4985939;28;20368;-65
2022/08/13 02:44:50;;;;;;;5.27;4.07;;;17.40;73.10;;;;;;4969804;28;20564;-65
2022/08/13 02:47:18;;;;;;;6.53;4.53;;;17.40;73.10;;;;;;4983083;28;20343;-65
2022/08/13 02:49:44;;;;;;;6.03;4.03;;;17.40;73.00;;;;;;4968905;28;20300;-65
2022/08/13 02:52:10;;;;;;;6.97;4.30;;;17.40;72.90;;;;;;4980412;28;20786;-65
2022/08/13 02:54:42;;;;;;;4.77;4.27;;;17.40;72.80;;;;;;5001188;28;20396;-65
2022/08/13 02:57:10;;;;;;;8.10;4.73;;;17.30;72.90;;;;;;4988472;28;20585;-65
2022/08/13 02:59:36;;;;;;;7.13;4.40;;;17.30;72.70;;;;;;5004350;28;20309;-65
2022/08/13 03:02:04;;;;;;;5.83;4.50;;;17.30;72.60;;;;;;4983090;28;20801;-65
2022/08/13 03:04:30;;;;;;;6.93;4.23;;;17.20;72.70;;;;;;4992019;28;20286;-65
2022/08/13 03:06:57;;;;;;;5.63;4.37;;;17.20;72.50;;;;;;4967290;28;20389;-65
2022/08/13 03:09:23;;;;;;;4.60;4.10;;;17.20;72.40;;;;;;4967288;28;20309;-65
2022/08/13 03:11:49;;;;;;;6.67;4.50;;;17.20;72.30;;;;;;4964988;28;20411;-65
2022/08/13 03:14:16;;;;;;;6.40;4.17;;;17.20;72.30;;;;;;4985241;28;20452;-65
2022/08/13 03:16:42;;;;;;;5.30;4.03;;;17.20;72.10;;;;;;4983589;28;20299;-65
2022/08/13 03:19:08;;;;;;;6.13;4.30;;;17.20;72.00;;;;;;4983704;28;20836;-65
2022/08/13 03:21:39;;;;;;;6.73;4.23;;;17.10;72.00;;;;;;4987904;28;20309;-65
2022/08/13 03:24:08;;;;;;;5.77;4.40;;;17.10;72.00;;;;;;4988057;28;20057;-65
2022/08/13 03:26:34;;;;;;;10.20;4.17;;;17.10;71.80;;;;;;4993112;28;20282;-65
2022/08/13 03:29:03;;;;;;;7.50;4.43;;;17.10;71.70;;;;;;4971367;28;20778;-65
2022/08/13 03:31:30;;;;;;;6.00;4.50;;;17.00;71.70;;;;;;4949823;28;20089;-65
2022/08/13 03:34:01;;;;;;;5.10;4.30;;;17.00;71.60;;;;;;4984782;28;21341;-65
2022/08/13 03:36:30;;;;;;;6.23;3.90;;;17.00;71.50;;;;;;4988983;28;20293;-65
2022/08/13 03:38:56;;;;;;;6.27;3.97;;;17.00;71.30;;;;;;4985563;28;20305;-65
2022/08/13 03:41:22;;;;;;;6.10;3.93;;;17.00;71.40;;;;;;5010458;28;20317;-65
2022/08/13 03:43:48;;;;;;;5.73;4.00;;;16.90;71.30;;;;;;4964880;28;20742;-65
2022/08/13 03:46:17;;;;;;;6.93;3.70;;;16.90;71.30;;;;;;4986722;28;20327;-65
2022/08/13 03:48:48;;;;;;;6.23;3.87;;;16.90;71.30;;;;;;4984164;28;20101;-65
2022/08/13 03:51:16;;;;;;;4.80;3.70;;;16.90;71.40;;;;;;5010373;28;20293;-65
2022/08/13 03:53:43;;;;;;;4.27;3.87;;;16.80;71.30;;;;;;4990070;28;20803;-66
2022/08/13 03:56:10;;;;;;;5.40;3.80;;;16.80;71.20;;;;;;4988327;28;20297;-65
2022/08/13 03:58:37;;;;;;;5.53;3.53;;;16.80;71.20;;;;;;4991634;28;20297;-65
2022/08/13 04:01:04;;;;;;;5.27;4.03;;;16.80;71.10;;;;;;4981999;28;20694;-65
2022/08/13 04:03:37;;;;;;;4.80;3.40;;;16.80;71.00;;;;;;4969174;28;20285;-65
2022/08/13 04:06:09;;;;;;;5.10;3.70;;;16.80;70.90;;;;;;5006384;28;20285;-65
2022/08/13 04:08:36;;;;;;;6.23;3.80;;;16.80;70.90;;;;;;4980892;28;20290;-65
2022/08/13 04:11:09;;;;;;;8.40;3.97;;;16.80;70.70;;;;;;4979460;28;20277;-65
2022/08/13 04:13:37;;;;;;;6.40;3.33;;;16.80;70.70;;;;;;4981998;28;20314;-65
2022/08/13 04:16:15;;;;;;;4.67;3.50;;;16.80;70.70;;;;;;4966559;28;20286;-65
2022/08/13 04:18:43;;;;;;;4.40;3.83;;;16.70;70.50;;;;;;5010613;28;20296;-65
2022/08/13 04:21:11;;;;;;;6.43;3.77;;;16.70;70.50;;;;;;4984191;28;20317;-65
2022/08/13 04:23:39;;;;;;;5.27;3.70;;;16.70;70.40;;;;;;4985479;28;20309;-65
2022/08/13 04:26:06;;;;;;;19.20;4.40;;;16.80;70.40;;;;;;4986341;28;20285;-65
2022/08/13 04:28:32;;;;;;;4.77;3.97;;;16.70;70.40;;;;;;4986604;28;20289;-65
2022/08/13 04:30:58;;;;;;;5.13;3.57;;;16.70;70.30;;;;;;4969464;28;20294;-65
2022/08/13 04:33:26;;;;;;;5.23;3.50;;;16.70;70.30;;;;;;4978633;28;20278;-65
2022/08/13 04:35:51;;;;;;;10.73;4.07;;;16.80;70.20;;;;;;4973590;28;20762;-65
2022/08/13 04:38:17;;;;;;;5.87;3.90;;;16.80;70.10;;;;;;4985065;28;20301;-65
2022/08/13 04:40:45;;;;;;;8.47;3.80;;;16.80;70.00;;;;;;4986679;28;20411;-65
2022/08/13 04:43:13;;;;;;;7.17;3.57;;;16.80;70.00;;;;;;4984151;28;20100;-65
2022/08/13 04:45:42;;;;;;;5.63;3.70;;;16.80;69.90;;;;;;4982139;28;20451;-65
2022/08/13 04:48:12;;;;;;;6.73;3.73;;;16.80;69.60;;;;;;4970775;28;20484;-65
2022/08/13 04:50:38;;;;;;;6.83;4.43;;;16.80;69.60;;;;;;4990281;28;20284;-66
2022/08/13 04:53:23;;;;;;;4.50;3.47;;;16.90;69.50;;;;;;4985426;28;20820;-65
2022/08/13 04:55:49;;;;;;;4.22;3.03;;;16.90;69.40;;;;;;4969016;28;20646;-65
2022/08/13 04:58:15;;;;;;;5.33;3.73;;;16.90;69.30;;;;;;4983697;28;20124;-65
2022/08/13 05:00:44;;;;;;;6.70;3.50;;;16.90;69.20;;;;;;4984272;28;20309;-65
2022/08/13 05:03:17;;;;;;;6.53;3.93;;;17.00;69.10;;;;;;4990245;28;20286;-65
2022/08/13 05:05:45;;;;;;;5.23;3.90;;;17.00;69.00;;;;;;4985123;28;20352;-65
2022/08/13 05:08:12;;;;;;;3.70;3.30;;;17.10;68.90;;;;;;4978691;28;20316;-65
2022/08/13 05:10:42;;;;;;;5.07;3.47;;;17.10;68.80;;;;;;4967661;28;20297;-65
2022/08/13 05:13:25;;;;;;;5.73;3.63;;;17.10;68.80;;;;;;4970136;28;20285;-68
2022/08/13 05:15:51;;;;;;;5.97;4.10;;;17.20;68.60;;;;;;4984230;28;20309;-67
2022/08/13 05:18:18;;;;;;;8.27;3.53;;;17.20;68.60;;;;;;4976131;28;20470;-68
2022/08/13 05:20:44;;;;;;;5.10;3.40;;;17.20;68.50;;;;;;4969753;28;20698;-68
2022/08/13 05:23:16;;;;;;;4.77;3.30;;;17.30;68.30;;;;;;4971864;28;20300;-67
2022/08/13 05:25:42;;;;;;;5.60;3.60;;;17.30;68.40;;;;;;4981351;28;20324;-68
2022/08/13 05:28:08;;;;;;;4.93;3.10;;;17.40;68.40;;;;;;4982501;28;20362;-68
2022/08/13 05:30:37;;;;;;;7.70;3.20;;;17.40;68.20;;;;;;4978489;28;20404;-68
2022/08/13 05:33:18;;;;;;;3.70;3.20;;;17.50;68.10;;;;;;5015647;28;20499;-67
2022/08/13 05:35:46;;;;;;;7.27;3.30;;;17.50;68.20;;;;;;4967522;28;20650;-67
2022/08/13 05:38:12;;;;;;;4.00;3.40;;;17.60;68.00;;;;;;4970709;28;20290;-68
2022/08/13 05:40:41;;;;;;;5.60;3.90;;;17.70;67.90;;;;;;4976890;28;20337;-68
2022/08/13 05:43:17;;;;;;;4.17;3.30;;;17.80;67.70;;;;;;4962672;28;20397;-68
2022/08/13 05:45:47;;;;;;;3.83;3.00;;;17.90;67.50;;;;;;4983490;28;20286;-68
2022/08/13 05:48:12;;;;;;;4.87;3.23;;;17.90;67.30;;;;;;4976816;28;20303;-68
2022/08/13 05:50:38;;;;;;;4.47;2.83;;;18.00;67.10;;;;;;4983055;28;20312;-68
2022/08/13 05:53:09;;;;;;;8.47;3.03;;;18.10;66.80;;;;;;4991761;28;20069;-68
2022/08/13 05:55:40;;;;;;;5.63;3.20;;;18.20;66.60;;;;;;4987319;28;20446;-68
2022/08/13 05:58:08;;;;;;;3.73;3.00;;;18.30;66.40;;;;;;4964333;28;20702;-68
2022/08/13 06:03:31;;;;;;;5.80;3.35;;;18.40;66.30;;;;;;4980978;28;20321;-68
2022/08/13 06:06:23;;;;;;;5.63;3.33;;;18.60;66.40;;;;;;4983971;28;20077;-68
2022/08/13 06:08:48;;;;;;;7.23;3.90;;;18.70;66.20;;;;;;4973400;28;20711;-68
2022/08/13 06:11:17;;;;;;;5.90;2.90;;;18.80;66.00;;;;;;4980551;28;20316;-68
2022/08/13 06:13:45;;;;;;;4.40;3.37;;;18.90;66.00;;;;;;4999462;28;20050;-68
2022/08/13 06:16:13;;;;;;;3.47;2.73;;;19.00;65.80;;;;;;4968228;28;20794;-68
2022/08/13 06:18:43;;;;;;;5.87;3.40;;;19.20;65.70;;;;;;4982168;28;20689;-68
2022/08/13 06:21:12;;;;;;;3.50;2.77;;;19.30;65.50;;;;;;4983644;28;20329;-68
2022/08/13 06:23:39;;;;;;;5.40;2.90;;;19.40;65.40;;;;;;4960225;28;20329;-68
2022/08/13 06:26:09;;;;;;;4.80;2.73;;;19.60;65.30;;;;;;4980608;28;20274;-68
2022/08/13 06:28:36;;;;;;;4.47;2.73;;;19.70;65.10;;;;;;4966157;28;20781;-68
2022/08/13 06:31:05;;;;;;;5.77;2.70;;;19.80;64.40;;;;;;4980149;28;20282;-68
2022/08/13 06:33:34;;;;;;;4.13;2.60;;;20.00;64.20;;;;;;4958847;28;20293;-68
2022/08/13 06:36:07;;;;;;;3.57;2.50;;;20.10;63.60;;;;;;4973922;28;20409;-68
2022/08/13 06:38:36;;;;;;;3.73;2.50;;;20.20;63.40;;;;;;4985925;28;20325;-68
2022/08/13 06:41:05;;;;;;;2.97;2.50;;;20.40;63.40;;;;;;4972102;28;20329;-68
2022/08/13 06:43:35;;;;;;;2.73;2.30;;;20.50;63.50;;;;;;4970588;28;20337;-66
2022/08/13 06:46:05;;;;;;;3.00;2.27;;;20.70;63.20;;;;;;4975131;28;20034;-65
2022/08/13 06:48:33;;;;;;;4.80;2.53;;;20.90;63.00;;;;;;4972938;28;20050;-66
2022/08/13 06:50:59;;;;;;;5.93;2.57;;;21.20;62.00;;;;;;4989330;28;20503;-68
2022/08/13 06:53:26;;;;;;;5.90;2.20;;;21.50;61.20;;;;;;4972334;28;20046;-68
2022/08/13 06:55:52;;;;;;;3.70;2.30;;;21.80;60.30;;;;;;4973684;28;20050;-68
2022/08/13 06:58:25;;;;;;;10.83;2.40;;;22.10;59.50;;;;;;4979662;28;20403;-68
2022/08/13 07:00:53;;;;;;;4.77;2.43;;;22.30;59.10;;;;;;4996759;28;20121;-68
2022/08/13 07:03:19;;;;;;;7.67;2.43;;;22.30;59.10;;;;;;4968388;28;20050;-68
2022/08/13 07:05:46;;;;;;;5.93;1.57;;;22.30;59.50;;;;;;4948297;28;20149;-66
2022/08/13 07:08:12;;;;;;;3.97;2.10;;;22.20;59.50;;;;;;5008569;28;20483;-66
2022/08/13 07:10:43;;;;;;;4.73;2.00;;;22.20;59.30;;;;;;4987540;28;20483;-66
2022/08/13 07:13:09;;;;;;;2.97;1.70;;;22.30;59.20;;;;;;4976410;28;20089;-66
2022/08/13 07:15:36;;;;;;;3.17;1.97;;;22.30;59.10;;;;;;4989984;28;20104;-66
2022/08/13 07:18:03;;;;;;;2.90;1.70;;;22.40;58.90;;;;;;4987218;28;20399;-66
2022/08/13 07:20:30;;;;;;;3.37;1.80;;;22.50;58.90;;;;;;4975989;28;20476;-66
2022/08/13 07:22:57;;;;;;;2.43;1.40;;;22.60;58.50;;;;;;4972486;28;20053;-66
2022/08/13 07:25:26;;;;;;;3.87;1.70;;;22.70;58.10;;;;;;4984910;28;20038;-66
2022/08/13 07:27:52;;;;;;;3.03;1.70;;;22.80;57.80;;;;;;4984468;28;20038;-68
2022/08/13 07:30:19;;;;;;;2.87;1.53;;;22.80;57.60;;;;;;4971379;28;20047;-68
2022/08/13 07:32:45;;;;;;;2.10;1.50;;;22.90;57.40;;;;;;5006918;28;20091;-66
2022/08/13 07:35:11;;;;;;;5.93;1.60;;;23.10;57.20;;;;;;4995980;28;20038;-68
2022/08/13 07:37:41;;;;;;;5.43;1.60;;;23.20;57.10;;;;;;4970297;28;20038;-69
2022/08/13 07:40:10;;;;;;;2.93;1.47;;;23.30;57.40;;;;;;4983099;28;20047;-69
2022/08/13 07:42:38;;;;;;;2.67;1.67;;;23.40;57.20;;;;;;4976588;28;20048;-68
2022/08/13 07:45:06;;;;;;;2.90;1.77;;;23.60;56.60;;;;;;4982701;28;20034;-68
2022/08/13 07:47:33;;;;;;;3.10;1.30;;;23.80;56.00;;;;;;4987626;28;20050;-68
2022/08/13 07:50:01;;;;;;;2.80;1.20;;;23.90;55.70;;;;;;4982411;28;20046;-69
2022/08/13 07:52:29;;;;;;;3.67;1.60;;;24.00;55.80;;;;;;5004625;28;20369;-68
2022/08/13 07:54:57;;;;;;;1.97;1.10;;;24.20;55.40;;;;;;4984686;28;20447;-68
2022/08/13 07:57:25;;;;;;;3.83;1.33;;;24.30;55.40;;;;;;5000944;28;20125;-68
2022/08/13 07:59:51;;;;;;;4.33;1.37;;;24.40;55.10;;;;;;4967237;28;20125;-68
2022/08/13 08:02:18;;;;;;;1.47;1.07;;;24.60;54.80;;;;;;4989066;28;20133;-68
2022/08/13 08:04:44;;;;;;;2.70;1.33;;;24.70;54.50;;;;;;4979030;28;20035;-68
2022/08/13 08:07:12;;;;;;;2.13;1.00;;;24.90;54.40;;;;;;5007663;28;20085;-68
2022/08/13 08:09:38;;;;;;;3.43;1.30;;;25.00;53.80;;;;;;4973942;28;20133;-69
2022/08/13 08:14:50;;;;;;;2.00;1.20;;;25.30;53.20;;;;;;4970929;28;20058;-69
2022/08/13 08:17:17;;;;;;;2.33;1.20;;;25.50;52.60;;;;;;5005593;28;20123;-66
2022/08/13 08:19:47;;;;;;;2.07;0.93;;;25.60;52.60;;;;;;4985695;28;20042;-66
2022/08/13 08:22:15;;;;;;;1.80;1.13;;;25.70;52.30;;;;;;4989455;28;20568;-66
2022/08/13 08:24:48;;;;;;;2.17;1.40;;;25.80;52.30;;;;;;4983049;28;20533;-66
2022/08/13 08:27:16;;;;;;;2.97;1.27;;;25.90;51.50;;;;;;5011054;28;20198;-66
2022/08/13 08:29:43;;;;;;;3.97;1.63;;;26.10;51.10;;;;;;4969722;28;20046;-66
2022/08/13 08:32:10;;;;;;;4.10;1.17;;;26.20;50.60;;;;;;4969175;28;20110;-66
2022/08/13 08:34:39;;;;;;;1.97;0.90;;;26.30;50.70;;;;;;4994342;28;20461;-66
2022/08/13 08:37:06;;;;;;;2.63;1.07;;;26.50;49.80;;;;;;4977638;28;20117;-66
2022/08/13 08:42:38;;;;;;;2.43;0.87;;;26.70;48.70;;;;;;4985336;28;20045;-66
2022/08/13 08:45:11;;;;;;;1.60;0.77;;;26.80;48.80;;;;;;4997038;28;20525;-66
2022/08/13 08:47:37;;;;;;;1.50;1.20;;;26.90;48.50;;;;;;4976677;28;20074;-66
2022/08/13 08:50:05;;;;;;;2.57;1.07;;;27.00;48.10;;;;;;4971788;28;20046;-66
2022/08/13 08:55:17;;;;;;;2.10;0.93;;;27.20;47.00;;;;;;4982605;28;20082;-67
2022/08/13 08:57:46;;;;;;;2.10;1.00;;;27.30;47.80;;;;;;4969014;28;20046;-67
2022/08/13 09:00:18;;;;;;;2.17;1.00;;;27.40;47.40;;;;;;4980632;28;20149;-66
2022/08/13 09:02:47;;;;;;;3.30;1.20;;;27.50;46.60;;;;;;4967421;28;20041;-67
2022/08/13 09:05:16;;;;;;;3.10;1.27;;;27.60;46.20;;;;;;5000045;28;20042;-66
2022/08/13 09:07:46;;;;;;;2.23;1.17;;;27.70;46.40;;;;;;4985596;28;20065;-67
2022/08/13 09:10:13;;;;;;;2.87;0.90;;;27.80;46.40;;;;;;4969242;28;20044;-67
2022/08/13 09:12:42;;;;;;;2.93;1.00;;;27.90;45.80;;;;;;4984825;28;20054;-67
2022/08/13 09:15:10;;;;;;;1.63;1.30;;;28.00;45.50;;;;;;4964281;28;20050;-67
2022/08/13 09:17:37;;;;;;;2.87;0.97;;;28.00;45.60;;;;;;4983396;28;20039;-67
2022/08/13 09:20:05;;;;;;;2.53;1.00;;;28.10;45.40;;;;;;4983016;28;20421;-67
2022/08/13 09:22:32;;;;;;;4.53;1.20;;;28.20;45.00;;;;;;4978519;28;20031;-67
2022/08/13 09:24:58;;;;;;;1.77;1.00;;;28.40;44.50;;;;;;4949691;28;20049;-67
2022/08/13 09:27:28;;;;;;;2.67;0.80;;;28.40;44.50;;;;;;4998564;28;20051;-67
2022/08/13 09:29:54;;;;;;;2.10;0.80;;;28.50;43.80;;;;;;4971705;28;20038;-67
2022/08/13 09:32:21;;;;;;;2.27;0.80;;;28.60;43.70;;;;;;4979574;28;20085;-66
2022/08/13 09:34:47;;;;;;;2.73;1.43;;;28.70;43.20;;;;;;4976225;28;20038;-67
2022/08/13 09:37:13;;;;;;;1.47;0.80;;;28.70;43.00;;;;;;4967096;28;20058;-67
2022/08/13 09:40:06;;;;;;;2.27;0.87;;;28.80;41.60;;;;;;4969815;28;20066;-67
2022/08/13 09:42:44;;;;;;;1.97;0.90;;;28.90;42.60;;;;;;4984723;28;20495;-67
2022/08/13 09:45:10;;;;;;;1.47;0.80;;;29.00;42.40;;;;;;4979211;28;20138;-67
2022/08/13 09:47:36;;;;;;;2.03;1.00;;;29.10;42.10;;;;;;4968000;28;20138;-67
2022/08/13 09:50:03;;;;;;;1.00;0.77;;;29.20;41.30;;;;;;4969598;28;20034;-67
2022/08/13 09:52:30;;;;;;;1.87;0.70;;;29.30;40.90;;;;;;4982258;28;20096;-67
2022/08/13 09:54:57;;;;;;;4.47;0.90;;;29.40;40.70;;;;;;4984568;28;20038;-67
2022/08/13 09:57:24;;;;;;;1.77;0.90;;;29.50;39.60;;;;;;4968473;28;20049;-67
2022/08/13 09:59:50;;;;;;;1.30;0.80;;;29.50;40.40;;;;;;4976609;28;20050;-67
2022/08/13 10:02:16;;;;;;;2.03;0.90;;;29.50;39.40;;;;;;4968021;28;20044;-67
2022/08/13 10:04:42;;;;;;;1.23;0.80;;;29.60;39.80;;;;;;4980669;28;20034;-69
2022/08/13 10:07:09;;;;;;;0.93;0.70;;;29.70;39.30;;;;;;4984503;28;20343;-69
2022/08/13 10:09:36;;;;;;;1.50;0.70;;;29.80;39.10;;;;;;4983543;28;20129;-70
2022/08/13 10:12:04;;;;;;;2.57;0.70;;;29.90;38.90;;;;;;4979666;28;20149;-70
2022/08/13 10:14:30;;;;;;;1.93;0.90;;;30.00;38.50;;;;;;4979130;28;20054;-69
2022/08/13 10:16:56;;;;;;;2.93;0.90;;;30.00;38.60;;;;;;4989633;28;20037;-70
2022/08/13 10:19:22;;;;;;;2.33;0.90;;;30.10;38.40;;;;;;4971879;28;20490;-70
2022/08/13 10:21:47;;;;;;;1.20;0.73;;;30.20;37.30;;;;;;4952335;28;20052;-70
2022/08/13 10:24:13;;;;;;;1.10;0.67;;;30.20;37.90;;;;;;4986647;28;20112;-70
2022/08/13 10:26:40;;;;;;;2.53;0.87;;;30.20;37.40;;;;;;4950097;28;20077;-70
2022/08/13 10:29:10;;;;;;;1.70;0.70;;;30.30;37.20;;;;;;4994430;28;20117;-70
2022/08/13 10:31:36;;;;;;;1.93;0.60;;;30.30;37.80;;;;;;4983257;28;20134;-70
2022/08/13 10:34:04;;;;;;;2.60;0.70;;;30.30;36.40;;;;;;4987205;28;20447;-70
2022/08/13 10:36:33;;;;;;;3.47;0.83;;;30.40;36.60;;;;;;4984969;28;20042;-70
2022/08/13 10:38:59;;;;;;;1.40;0.80;;;30.50;36.90;;;;;;4967403;28;20108;-70
2022/08/13 10:41:25;;;;;;;4.90;0.80;;;30.50;36.10;;;;;;4970645;28;20460;-70
2022/08/13 10:43:56;;;;;;;4.07;0.80;;;30.60;36.60;;;;;;4973570;28;20162;-70
2022/08/13 10:46:21;;;;;;;2.63;1.03;;;30.70;36.00;;;;;;4965494;28;20048;-70
2022/08/13 10:48:55;;;;;;;2.23;0.83;;;30.70;36.60;;;;;;4973390;28;20153;-70
2022/08/13 10:51:28;;;;;;;2.63;0.75;;;30.80;35.80;;;;;;4986043;28;20078;-70
2022/08/13 10:53:59;;;;;;;1.63;0.63;;;30.80;35.70;;;;;;4984883;28;20052;-70
2022/08/13 10:56:28;;;;;;;1.30;1.03;;;30.90;35.10;;;;;;5016437;28;20113;-70
2022/08/13 10:58:56;;;;;;;1.73;0.80;;;30.90;35.40;;;;;;4984882;28;20116;-70
2022/08/13 11:01:24;;;;;;;3.13;0.70;;;31.00;35.40;;;;;;4971864;28;20062;-70
2022/08/13 11:03:58;;;;;;;2.53;0.90;;;31.10;35.50;;;;;;4956037;28;20140;-70
2022/08/13 11:06:27;;;;;;;0.85;0.68;;;31.20;35.30;;;;;;5010756;28;20073;-70
2022/08/13 11:08:59;;;;;;;1.67;0.73;;;31.20;34.70;;;;;;4966147;28;20071;-70
2022/08/13 11:11:26;;;;;;;0.87;0.60;;;31.30;34.60;;;;;;4988976;28;20050;-70
2022/08/13 11:13:52;;;;;;;2.50;0.77;;;31.30;34.70;;;;;;4991266;28;20073;-70
2022/08/13 11:18:59;;;;;;;2.23;0.70;;;31.50;34.90;;;;;;4974717;28;20060;-70
2022/08/13 11:21:25;;;;;;;2.03;0.60;;;31.50;33.70;;;;;;4988483;28;20133;-70
2022/08/13 11:23:52;;;;;;;2.67;0.60;;;31.60;34.00;;;;;;5004138;28;20038;-68
2022/08/13 11:26:20;;;;;;;2.20;1.10;;;31.50;34.10;;;;;;4987040;28;20463;-70
2022/08/13 11:28:45;;;;;;;1.17;0.70;;;31.50;33.80;;;;;;4960171;28;20101;-70
2022/08/13 11:31:12;;;;;;;1.87;0.70;;;31.50;34.20;;;;;;4971121;28;20410;-68
2022/08/13 11:33:37;;;;;;;1.90;0.60;;;31.50;35.00;;;;;;4966776;28;20597;-70
2022/08/13 11:36:03;;;;;;;0.73;0.60;;;31.70;35.20;;;;;;4953912;28;20038;-68
2022/08/13 11:38:29;;;;;;;2.03;0.87;;;31.80;34.50;;;;;;4961018;28;20052;-68
2022/08/13 11:40:57;;;;;;;3.43;0.70;;;31.90;33.70;;;;;;4968748;28;20043;-68
2022/08/13 11:43:26;;;;;;;1.60;0.80;;;32.00;33.50;;;;;;4978597;28;20358;-68
2022/08/13 11:45:53;;;;;;;2.23;0.70;;;32.00;33.80;;;;;;4971001;28;20046;-68
2022/08/13 11:48:19;;;;;;;2.40;0.50;;;32.00;33.20;;;;;;4982843;28;20491;-68
2022/08/13 11:50:46;;;;;;;1.97;0.70;;;32.00;32.60;;;;;;4968843;28;20039;-68
2022/08/13 11:53:12;;;;;;;1.00;0.60;;;32.00;33.20;;;;;;4984677;28;20053;-68
2022/08/13 11:55:38;;;;;;;2.50;0.60;;;32.00;33.20;;;;;;4958448;28;20133;-68
2022/08/13 11:58:06;;;;;;;1.00;0.50;;;32.00;32.60;;;;;;4997846;28;20409;-68
2022/08/13 12:00:33;;;;;;;1.47;0.50;;;32.10;33.10;;;;;;4977657;28;20065;-68
2022/08/13 12:02:58;;;;;;;2.27;0.60;;;32.20;32.40;;;;;;4962840;28;20046;-68
2022/08/13 12:05:24;;;;;;;2.67;0.80;;;32.40;32.00;;;;;;4964548;28;20027;-68
2022/08/13 12:07:50;;;;;;;2.33;0.60;;;32.40;32.20;;;;;;4967291;28;20570;-68
2022/08/13 12:10:19;;;;;;;2.27;0.60;;;32.40;33.30;;;;;;4981184;28;20081;-68
2022/08/13 12:12:45;;;;;;;1.97;0.70;;;32.40;32.70;;;;;;4972905;28;20042;-68
2022/08/13 12:15:12;;;;;;;1.00;0.63;;;32.40;32.30;;;;;;4948680;28;20046;-68
2022/08/13 12:17:42;;;;;;;1.90;0.60;;;32.50;32.10;;;;;;4981276;28;20042;-68
2022/08/13 12:20:20;;;;;;;1.30;0.60;;;32.50;31.40;;;;;;5004005;28;20049;-68
2022/08/13 12:22:48;;;;;;;1.37;0.70;;;32.40;31.30;;;;;;4987214;28;20081;-68
2022/08/13 12:25:13;;;;;;;1.97;0.63;;;32.40;31.40;;;;;;4972253;28;20514;-68
2022/08/13 12:27:39;;;;;;;1.20;0.60;;;32.40;31.30;;;;;;4976042;28;20546;-69
2022/08/13 12:30:06;;;;;;;3.07;0.70;;;32.40;32.20;;;;;;4999569;28;20066;-69
2022/08/13 12:32:32;;;;;;;1.00;0.60;;;32.60;32.20;;;;;;4984117;28;20826;-69
2022/08/13 12:34:58;;;;;;;1.83;0.60;;;32.70;31.50;;;;;;4972725;28;20066;-69
2022/08/13 12:37:24;;;;;;;1.70;0.70;;;32.70;31.60;;;;;;4976772;28;20046;-69
2022/08/13 12:39:51;;;;;;;1.83;0.60;;;32.70;31.30;;;;;;4984303;28;20574;-69
2022/08/13 12:42:17;;;;;;;1.37;0.50;;;32.70;31.00;;;;;;4963668;28;20367;-69
2022/08/13 12:44:43;;;;;;;0.80;0.50;;;32.60;31.50;;;;;;4964382;28;20129;-69
2022/08/13 12:47:08;;;;;;;3.40;0.60;;;32.70;31.40;;;;;;4960261;28;20047;-69
2022/08/13 12:49:34;;;;;;;5.83;0.80;;;32.70;31.80;;;;;;4974759;28;20138;-69
2022/08/13 12:52:00;;;;;;;0.70;0.57;;;32.70;31.20;;;;;;4969660;28;20046;-68
2022/08/13 12:54:29;;;;;;;0.90;0.70;;;32.70;31.00;;;;;;4968626;28;20046;-68
2022/08/13 12:56:54;;;;;;;0.83;0.57;;;32.70;30.60;;;;;;4980238;28;20038;-68
2022/08/13 12:59:20;;;;;;;0.80;0.40;;;32.80;31.40;;;;;;4969920;28;20057;-68
2022/08/13 13:01:52;;;;;;;1.70;0.50;;;32.80;30.90;;;;;;4968141;28;20060;-68
2022/08/13 13:04:18;;;;;;;1.00;0.57;;;32.90;31.00;;;;;;4979013;28;20538;-68
2022/08/13 13:06:44;;;;;;;3.43;0.60;;;33.00;30.50;;;;;;4969255;28;20038;-68
2022/08/13 13:09:10;;;;;;;0.90;0.50;;;33.20;30.50;;;;;;4967563;28;20454;-68
2022/08/13 13:11:36;;;;;;;1.93;0.63;;;33.30;30.70;;;;;;4975302;28;20049;-68
2022/08/13 13:14:02;;;;;;;0.93;0.70;;;33.30;30.10;;;;;;5003109;28;20092;-68
2022/08/13 13:16:28;;;;;;;2.28;0.60;;;33.30;30.40;;;;;;4982545;28;20420;-69